createdAt,value
2019-01-30T00:00:30.051Z,-1.10
2019-01-30T00:03:00.223Z,-1.10
2019-01-30T00:05:30.203Z,-1.00
2019-01-30T00:08:00.106Z,-1.10
2019-01-30T00:10:30.123Z,-1.10
2019-01-30T00:13:00.143Z,-1.10
2019-01-30T00:15:29.962Z,-1.10
2019-01-30T00:17:59.956Z,-1.10
2019-01-30T00:20:29.995Z,-1.10
2019-01-30T00:22:59.999Z,-1.10
2019-01-30T00:25:30.066Z,-1.00
2019-01-30T00:28:03.283Z,-1.00
2019-01-30T00:30:33.236Z,-1.00
2019-01-30T00:33:03.250Z,-1.00
2019-01-30T00:35:33.163Z,-1.00
2019-01-30T00:38:03.180Z,-1.10
2019-01-30T00:40:33.059Z,-1.10
2019-01-30T00:43:03.113Z,-1.10
2019-01-30T00:45:33.127Z,-1.00
2019-01-30T00:48:03.011Z,-1.00
2019-01-30T00:50:33.035Z,-1.00
2019-01-30T00:53:02.956Z,-1.10
2019-01-30T00:55:33.083Z,-1.00
2019-01-30T00:58:03.000Z,-1.00
2019-01-30T01:00:33.099Z,-1.00
2019-01-30T01:03:03.359Z,-1.00
2019-01-30T01:05:33.235Z,-1.00
2019-01-30T01:08:03.279Z,-1.00
2019-01-30T01:10:33.179Z,-1.00
2019-01-30T01:13:03.093Z,-1.00
2019-01-30T01:15:32.893Z,-1.00
2019-01-30T01:18:02.909Z,-1.00
2019-01-30T01:20:32.828Z,-1.00
2019-01-30T01:23:02.755Z,-1.00
2019-01-30T01:25:32.548Z,-1.00
2019-01-30T01:28:03.003Z,-1.00
2019-01-30T01:30:32.915Z,-1.00
2019-01-30T01:33:02.796Z,-1.00
2019-01-30T01:35:32.931Z,-1.00
2019-01-30T01:38:04.175Z,-1.00
2019-01-30T01:40:34.174Z,-1.00
2019-01-30T01:43:03.991Z,-1.00
2019-01-30T01:45:33.912Z,-1.00
2019-01-30T01:48:03.807Z,-1.10
2019-01-30T01:50:33.793Z,-1.10
2019-01-30T01:53:03.641Z,-1.10
2019-01-30T01:55:33.561Z,-1.10
2019-01-30T01:58:03.467Z,-1.00
2019-01-30T02:00:35.681Z,-1.10
2019-01-30T02:03:05.052Z,-1.00
2019-01-30T02:05:34.831Z,-1.00
2019-01-30T02:08:04.976Z,-1.00
2019-01-30T02:10:35.684Z,-1.00
2019-01-30T02:13:05.910Z,-1.10
2019-01-30T02:15:35.871Z,-1.00
2019-01-30T02:18:08.343Z,-1.00
2019-01-30T02:20:37.591Z,-1.00
2019-01-30T02:23:07.533Z,-1.00
2019-01-30T02:25:37.327Z,-1.10
2019-01-30T02:28:07.159Z,-1.00
2019-01-30T02:30:47.268Z,-1.00
2019-01-30T02:33:08.615Z,-1.10
2019-01-30T02:35:38.391Z,-1.10
2019-01-30T02:38:08.446Z,-1.10
2019-01-30T02:40:38.267Z,-1.00
2019-01-30T02:43:08.264Z,-1.10
2019-01-30T02:45:38.303Z,-1.10
2019-01-30T02:48:08.296Z,-1.10
2019-01-30T02:50:38.216Z,-1.10
2019-01-30T02:53:08.256Z,-1.10
2019-01-30T02:55:38.140Z,-1.10
2019-01-30T02:58:07.965Z,-1.00
2019-01-30T03:00:38.271Z,-1.10
2019-01-30T03:03:08.293Z,-1.00
2019-01-30T03:05:38.320Z,-1.00
2019-01-30T03:08:08.387Z,-1.00
2019-01-30T03:13:07.543Z,-1.00
2019-01-30T03:15:37.674Z,-1.00
2019-01-30T03:18:07.765Z,-1.00
2019-01-30T03:20:37.751Z,-0.90
2019-01-30T03:23:07.707Z,-1.00
2019-01-30T03:25:37.615Z,-1.00
2019-01-30T03:28:08.543Z,-1.00
2019-01-30T03:30:38.473Z,-1.00
2019-01-30T03:33:08.288Z,-1.00
2019-01-30T03:35:38.411Z,-1.00
2019-01-30T03:38:08.223Z,-1.00
2019-01-30T03:40:38.143Z,-1.00
2019-01-30T03:43:08.039Z,-1.00
2019-01-30T03:45:37.964Z,-0.90
2019-01-30T03:48:07.878Z,-0.90
2019-01-30T03:50:37.786Z,-0.90
2019-01-30T03:53:07.608Z,-0.90
2019-01-30T03:55:37.496Z,-0.90
2019-01-30T03:58:07.320Z,-0.90
2019-01-30T04:00:37.124Z,-0.90
2019-01-30T04:03:06.938Z,-0.90
2019-01-30T04:05:36.958Z,-0.90
2019-01-30T04:08:06.863Z,-0.90
2019-01-30T04:10:36.777Z,-0.90
2019-01-30T04:13:06.807Z,-0.90
2019-01-30T04:15:36.724Z,-0.90
2019-01-30T04:18:06.831Z,-0.80
2019-01-30T04:20:36.747Z,-0.80
2019-01-30T04:23:06.855Z,-0.80
2019-01-30T04:25:36.794Z,-0.80
2019-01-30T04:28:06.796Z,-0.80
2019-01-30T04:30:36.799Z,-0.80
2019-01-30T04:33:06.831Z,-0.70
2019-01-30T04:35:36.839Z,-0.80
2019-01-30T04:38:06.765Z,-0.80
2019-01-30T04:40:36.660Z,-0.70
2019-01-30T04:43:06.495Z,-0.80
2019-01-30T04:45:36.392Z,-0.80
2019-01-30T04:48:06.202Z,-0.80
2019-01-30T04:50:36.112Z,-0.80
2019-01-30T04:53:06.243Z,-0.80
2019-01-30T04:55:36.028Z,-0.80
2019-01-30T04:58:06.055Z,-0.80
2019-01-30T05:00:35.979Z,-0.80
2019-01-30T05:03:05.783Z,-0.80
2019-01-30T05:05:35.603Z,-0.70
2019-01-30T05:08:05.515Z,-0.70
2019-01-30T05:10:35.327Z,-0.70
2019-01-30T05:13:05.254Z,-0.70
2019-01-30T05:15:35.322Z,-0.50
2019-01-30T05:18:08.216Z,-0.50
2019-01-30T05:20:50.005Z,-0.40
2019-01-30T05:23:34.767Z,-0.30
2019-01-30T05:26:37.482Z,-0.30
2019-01-30T05:29:20.574Z,-0.20
2019-01-30T05:32:12.066Z,-0.30
2019-01-30T05:34:50.104Z,-0.30
2019-01-30T05:37:36.747Z,-0.20
2019-01-30T05:40:15.993Z,-0.20
2019-01-30T05:43:18.374Z,-0.30
2019-01-30T05:45:56.947Z,-0.20
2019-01-30T05:48:32.985Z,-0.40
2019-01-30T05:51:22.974Z,-0.10
2019-01-30T05:54:12.144Z,-0.10
2019-01-30T05:57:01.968Z,-0.10
2019-01-30T05:59:51.519Z,-0.10
2019-01-30T06:02:21.403Z,0.80
2019-01-30T06:04:51.451Z,-0.10
2019-01-30T06:07:21.265Z,-0.10
2019-01-30T06:09:51.163Z,-0.10
2019-01-30T06:12:21.088Z,-0.10
2019-01-30T06:14:50.991Z,-0.20
2019-01-30T06:17:20.920Z,-0.20
2019-01-30T06:19:50.931Z,-0.20
2019-01-30T06:22:20.939Z,-0.30
2019-01-30T06:24:50.964Z,-0.30
2019-01-30T06:27:20.960Z,-0.30
2019-01-30T06:29:50.992Z,-0.30
2019-01-30T06:32:21.839Z,-0.30
2019-01-30T06:34:51.948Z,-0.40
2019-01-30T06:37:21.760Z,-0.30
2019-01-30T06:39:51.679Z,-0.30
2019-01-30T06:42:21.781Z,-0.30
2019-01-30T06:44:51.583Z,-0.20
2019-01-30T06:47:21.499Z,-0.10
2019-01-30T06:49:51.312Z,-0.10
2019-01-30T06:52:21.259Z,-0.10
2019-01-30T06:54:51.129Z,-0.10
2019-01-30T06:57:21.067Z,-0.10
2019-01-30T06:59:50.963Z,-0.30
2019-01-30T07:02:20.992Z,-0.30
2019-01-30T07:04:50.798Z,-0.30
2019-01-30T07:07:20.951Z,-0.40
2019-01-30T07:09:50.932Z,-0.40
2019-01-30T07:12:20.863Z,-0.30
2019-01-30T07:14:50.855Z,-0.30
2019-01-30T07:17:20.771Z,-0.40
2019-01-30T07:19:50.803Z,-0.30
2019-01-30T07:22:20.595Z,-0.20
2019-01-30T07:24:50.624Z,-0.10
2019-01-30T07:27:20.427Z,-0.20
2019-01-30T07:29:50.351Z,-0.20
2019-01-30T07:32:20.159Z,-0.20
2019-01-30T07:34:49.982Z,-0.20
2019-01-30T07:37:19.774Z,-0.20
2019-01-30T07:39:49.599Z,-0.20
2019-01-30T07:42:19.411Z,-0.20
2019-01-30T07:44:50.899Z,-0.20
2019-01-30T07:47:20.676Z,-0.10
2019-01-30T07:49:50.679Z,-0.10
2019-01-30T07:52:20.594Z,-0.20
2019-01-30T07:54:50.403Z,-0.20
2019-01-30T07:57:20.202Z,-0.20
2019-01-30T07:59:51.051Z,-0.20
2019-01-30T08:02:21.983Z,-0.20
2019-01-30T08:04:52.015Z,-0.30
2019-01-30T08:07:22.019Z,-0.30
2019-01-30T08:09:51.946Z,-0.30
2019-01-30T08:12:21.967Z,-0.40
2019-01-30T08:14:51.763Z,-0.40
2019-01-30T08:17:21.566Z,-0.30
2019-01-30T08:19:52.051Z,-0.30
2019-01-30T08:22:21.926Z,-0.20
2019-01-30T08:24:52.107Z,-0.10
2019-01-30T08:27:22.158Z,-0.20
2019-01-30T08:29:52.256Z,-0.20
2019-01-30T08:32:22.443Z,-0.30
2019-01-30T08:34:52.507Z,-0.30
2019-01-30T08:37:22.523Z,-0.20
2019-01-30T08:39:52.559Z,-0.30
2019-01-30T08:42:22.340Z,-0.20
2019-01-30T08:44:52.375Z,-0.20
2019-01-30T08:47:22.075Z,-0.20
2019-01-30T08:49:52.005Z,-0.10
2019-01-30T08:52:21.776Z,-0.20
2019-01-30T08:54:51.922Z,-0.10
2019-01-30T08:57:21.839Z,-0.20
2019-01-30T08:59:51.832Z,-0.30
2019-01-30T09:02:21.929Z,-0.20
2019-01-30T09:04:51.685Z,-0.20
2019-01-30T09:07:23.283Z,-0.20
2019-01-30T09:09:53.027Z,-0.30
2019-01-30T09:12:22.835Z,-0.30
2019-01-30T09:14:52.672Z,-0.40
2019-01-30T09:17:22.579Z,-0.30
2019-01-30T09:19:52.389Z,-0.40
2019-01-30T09:22:22.299Z,-0.30
2019-01-30T09:24:52.191Z,-0.20
2019-01-30T09:27:24.221Z,-0.10
2019-01-30T09:29:53.551Z,0.00
2019-01-30T09:32:23.720Z,0.00
2019-01-30T09:34:53.398Z,0.10
2019-01-30T09:37:23.442Z,0.10
2019-01-30T09:39:53.236Z,0.20
2019-01-30T09:42:23.231Z,0.30
2019-01-30T09:44:53.039Z,0.30
2019-01-30T09:47:23.108Z,0.10
2019-01-30T09:49:53.015Z,0.10
2019-01-30T09:52:26.997Z,0.10
2019-01-30T09:54:54.871Z,0.10
2019-01-30T09:57:24.891Z,0.10
2019-01-30T09:59:54.899Z,0.20
2019-01-30T10:02:25.466Z,0.20
2019-01-30T10:04:55.436Z,0.30
2019-01-30T10:07:25.339Z,0.10
2019-01-30T10:09:55.155Z,0.10
2019-01-30T10:12:25.080Z,0.20
2019-01-30T10:14:54.996Z,0.20
2019-01-30T10:17:25.680Z,0.20
2019-01-30T10:19:55.731Z,0.20
2019-01-30T10:22:25.660Z,0.10
2019-01-30T10:24:55.455Z,0.10
2019-01-30T10:27:25.384Z,0.10
2019-01-30T10:29:55.268Z,0.10
2019-01-30T10:32:25.203Z,0.20
2019-01-30T10:34:54.995Z,0.30
2019-01-30T10:37:24.827Z,0.40
2019-01-30T10:39:54.616Z,0.40
2019-01-30T10:42:24.451Z,0.40
2019-01-30T10:44:54.299Z,0.30
2019-01-30T10:47:24.332Z,0.30
2019-01-30T10:49:54.283Z,0.40
2019-01-30T10:52:24.303Z,0.50
2019-01-30T10:54:54.247Z,0.50
2019-01-30T10:57:24.119Z,0.40
2019-01-30T10:59:54.051Z,0.40
2019-01-30T11:02:24.169Z,0.30
2019-01-30T11:04:54.075Z,0.30
2019-01-30T11:07:23.891Z,0.20
2019-01-30T11:09:53.707Z,0.30
2019-01-30T11:12:23.599Z,0.20
2019-01-30T11:14:53.531Z,0.30
2019-01-30T11:17:23.479Z,0.30
2019-01-30T11:19:53.487Z,0.30
2019-01-30T11:22:23.509Z,0.20
2019-01-30T11:24:55.677Z,0.20
2019-01-30T11:27:24.959Z,0.10
2019-01-30T11:29:54.957Z,0.20
2019-01-30T11:32:24.883Z,0.10
2019-01-30T11:34:54.673Z,0.20
2019-01-30T11:37:24.821Z,0.20
2019-01-30T11:39:54.645Z,0.10
2019-01-30T11:42:24.630Z,0.10
2019-01-30T11:44:54.548Z,0.00
2019-01-30T11:47:24.655Z,0.10
2019-01-30T11:49:54.695Z,0.20
2019-01-30T11:52:24.687Z,0.30
2019-01-30T11:54:54.520Z,0.20
2019-01-30T11:57:24.411Z,0.20
2019-01-30T11:59:54.543Z,0.10
2019-01-30T12:02:24.344Z,0.10
2019-01-30T12:04:54.153Z,0.10
2019-01-30T12:07:23.951Z,0.20
2019-01-30T12:09:56.151Z,0.20
2019-01-30T12:12:25.943Z,0.20
2019-01-30T12:14:55.751Z,0.10
2019-01-30T12:17:25.788Z,0.00
2019-01-30T12:19:55.579Z,0.10
2019-01-30T12:22:25.401Z,0.10
2019-01-30T12:24:55.315Z,0.10
2019-01-30T12:27:25.132Z,0.10
2019-01-30T12:29:54.917Z,0.10
2019-01-30T12:32:24.951Z,0.10
2019-01-30T12:34:54.851Z,0.00
2019-01-30T12:37:24.787Z,0.00
2019-01-30T12:39:54.671Z,0.00
2019-01-30T12:42:24.610Z,0.00
2019-01-30T12:44:54.715Z,0.20
2019-01-30T12:47:24.615Z,0.10
2019-01-30T12:49:54.487Z,0.10
2019-01-30T12:52:24.455Z,0.10
2019-01-30T12:54:54.383Z,0.10
2019-01-30T12:57:24.182Z,0.20
2019-01-30T12:59:54.103Z,0.30
2019-01-30T13:02:24.036Z,0.30
2019-01-30T13:04:54.058Z,0.30
2019-01-30T13:07:23.928Z,0.20
2019-01-30T13:09:53.951Z,0.00
2019-01-30T13:12:23.879Z,0.00
2019-01-30T13:14:53.675Z,0.10
2019-01-30T13:17:23.499Z,0.10
2019-01-30T13:19:53.416Z,0.10
2019-01-30T13:22:23.325Z,0.10
2019-01-30T13:24:53.227Z,0.00
2019-01-30T13:27:23.159Z,0.00
2019-01-30T13:29:53.240Z,0.20
2019-01-30T13:32:23.175Z,0.20
2019-01-30T13:34:53.103Z,0.30
2019-01-30T13:37:22.933Z,0.30
2019-01-30T13:39:52.795Z,0.30
2019-01-30T13:42:22.712Z,0.20
2019-01-30T13:44:52.528Z,0.10
2019-01-30T13:47:22.464Z,0.20
2019-01-30T13:49:52.273Z,0.20
2019-01-30T13:52:23.752Z,0.10
2019-01-30T13:54:53.617Z,0.00
2019-01-30T13:57:23.675Z,-0.10
2019-01-30T13:59:53.656Z,0.00
2019-01-30T14:02:23.878Z,0.30
2019-01-30T14:04:59.584Z,0.00
2019-01-30T14:07:25.463Z,0.00
2019-01-30T14:09:55.291Z,0.20
2019-01-30T14:12:25.439Z,0.30
2019-01-30T14:14:55.414Z,0.30
2019-01-30T14:17:25.380Z,0.40
2019-01-30T14:19:57.724Z,0.50
2019-01-30T14:22:27.746Z,0.50
2019-01-30T14:24:57.634Z,0.60
2019-01-30T14:27:27.771Z,0.50
2019-01-30T14:29:58.689Z,0.30
2019-01-30T14:32:28.595Z,0.30
2019-01-30T14:34:58.419Z,0.20
2019-01-30T14:37:30.123Z,0.20
2019-01-30T14:40:00.053Z,0.30
2019-01-30T14:42:29.942Z,0.30
2019-01-30T14:44:59.691Z,0.40
2019-01-30T14:47:29.628Z,0.40
2019-01-30T14:49:59.444Z,0.50
2019-01-30T14:52:29.419Z,0.50
2019-01-30T14:54:59.443Z,0.50
2019-01-30T14:57:29.460Z,0.50
2019-01-30T14:59:59.601Z,0.50
2019-01-30T15:02:29.383Z,0.40
2019-01-30T15:04:59.447Z,0.30
2019-01-30T15:07:29.490Z,0.10
2019-01-30T15:10:00.360Z,0.10
2019-01-30T15:12:33.537Z,0.10
2019-01-30T15:15:03.562Z,0.10
2019-01-30T15:17:33.592Z,0.10
2019-01-30T15:20:05.122Z,0.10
2019-01-30T15:22:35.152Z,0.10
2019-01-30T15:25:05.799Z,-0.10
2019-01-30T15:27:35.784Z,-0.10
2019-01-30T15:30:07.259Z,-0.20
2019-01-30T15:32:37.251Z,-0.20
2019-01-30T15:35:07.614Z,-0.20
2019-01-30T15:37:37.746Z,-0.20
2019-01-30T15:40:10.383Z,-0.30
2019-01-30T15:42:49.172Z,-0.30
2019-01-30T15:45:14.627Z,-0.30
2019-01-30T15:47:44.627Z,-0.30
2019-01-30T15:50:17.766Z,-0.20
2019-01-30T15:52:47.736Z,-0.20
2019-01-30T15:55:17.742Z,-0.20
2019-01-30T15:57:52.779Z,-0.20
2019-01-30T16:00:25.967Z,-0.10
2019-01-30T16:02:55.784Z,-0.10
2019-01-30T16:05:26.723Z,-0.10
2019-01-30T16:07:56.649Z,-0.10
2019-01-30T16:10:26.667Z,-0.20
2019-01-30T16:12:56.655Z,-0.30
2019-01-30T16:15:29.511Z,-0.30
2019-01-30T16:17:59.567Z,-0.30
2019-01-30T16:20:29.757Z,-0.40
2019-01-30T16:23:03.221Z,-0.50
2019-01-30T16:25:33.216Z,-0.60
2019-01-30T16:28:03.337Z,-0.70
2019-01-30T16:30:33.347Z,-0.80
2019-01-30T16:33:03.382Z,-0.90
2019-01-30T16:35:33.576Z,-1.00
2019-01-30T16:38:03.735Z,-1.00
2019-01-30T16:40:33.507Z,-1.10
2019-01-30T16:43:03.603Z,-1.10
2019-01-30T16:45:33.647Z,-1.20
2019-01-30T16:48:03.752Z,-1.30
2019-01-30T16:50:34.408Z,-1.40
2019-01-30T16:53:04.799Z,-1.50
2019-01-30T16:55:37.706Z,-1.50
2019-01-30T16:58:07.930Z,-1.50
2019-01-30T17:00:37.951Z,-1.60
2019-01-30T17:03:08.271Z,-1.70
2019-01-30T17:05:38.591Z,-1.70
2019-01-30T17:08:09.119Z,-1.80
2019-01-30T17:10:39.139Z,-1.80
2019-01-30T17:13:09.144Z,-2.10
2019-01-30T17:15:39.806Z,-2.20
2019-01-30T17:18:12.489Z,-2.30
2019-01-30T17:20:42.584Z,-2.30
2019-01-30T17:23:12.583Z,-2.40
2019-01-30T17:25:42.951Z,-2.50
2019-01-30T17:28:12.919Z,-2.50
2019-01-30T17:31:06.076Z,-2.40
2019-01-30T17:33:35.887Z,-2.40
2019-01-30T17:36:05.747Z,-2.40
2019-01-30T17:38:35.853Z,-2.40
2019-01-30T17:41:06.568Z,-2.40
2019-01-30T17:43:38.706Z,-2.40
2019-01-30T17:46:08.844Z,-2.30
2019-01-30T17:48:38.763Z,-2.40
2019-01-30T17:51:08.796Z,-2.40
2019-01-30T17:53:38.837Z,-2.40
2019-01-30T17:56:09.024Z,-2.40
2019-01-30T17:58:39.123Z,-2.30
2019-01-30T18:01:09.258Z,-2.30
2019-01-30T18:03:39.367Z,-2.30
2019-01-30T18:06:12.899Z,-2.30
2019-01-30T18:08:42.573Z,-2.30
2019-01-30T18:11:12.591Z,-2.40
2019-01-30T18:13:45.480Z,-2.50
2019-01-30T18:16:17.947Z,-2.40
2019-01-30T18:18:48.074Z,-2.40
2019-01-30T18:21:18.180Z,-2.30
2019-01-30T18:23:48.291Z,-2.30
2019-01-30T18:26:18.351Z,-2.30
2019-01-30T18:28:48.435Z,-2.30
2019-01-30T18:31:18.469Z,-2.40
2019-01-30T18:33:48.372Z,-2.30
2019-01-30T18:36:18.288Z,-2.30
2019-01-30T18:38:48.179Z,-2.40
2019-01-30T18:41:18.129Z,-2.50
2019-01-30T18:43:48.163Z,-2.60
2019-01-30T18:46:18.155Z,-2.60
2019-01-30T18:48:48.265Z,-2.60
2019-01-30T18:51:18.297Z,-2.60
2019-01-30T18:53:48.487Z,-2.70
2019-01-30T18:56:18.516Z,-2.70
2019-01-30T18:58:51.709Z,-2.90
2019-01-30T19:01:21.927Z,-2.90
2019-01-30T19:03:51.831Z,-2.90
2019-01-30T19:06:21.873Z,-2.90
2019-01-30T19:08:51.792Z,-3.00
2019-01-30T19:11:21.792Z,-3.00
2019-01-30T19:13:51.792Z,-3.10
2019-01-30T19:16:22.039Z,-3.10
2019-01-30T19:18:52.189Z,-3.10
2019-01-30T19:21:22.062Z,-3.10
2019-01-30T19:23:52.172Z,-3.20
2019-01-30T19:26:22.212Z,-3.30
2019-01-30T19:28:52.335Z,-3.30
2019-01-30T19:31:22.441Z,-3.40
2019-01-30T19:33:52.537Z,-3.40
2019-01-30T19:36:22.661Z,-3.40
2019-01-30T19:38:52.822Z,-3.30
2019-01-30T19:41:23.097Z,-3.60
2019-01-30T19:43:53.255Z,-3.50
2019-01-30T19:46:23.359Z,-3.70
2019-01-30T19:48:53.339Z,-3.80
2019-01-30T19:51:23.481Z,-4.00
2019-01-30T19:53:53.654Z,-4.10
2019-01-30T19:56:23.743Z,-4.20
2019-01-30T19:58:53.923Z,-4.30
2019-01-30T20:01:35.672Z,-4.30
2019-01-30T20:03:57.450Z,-4.40
2019-01-30T20:06:27.640Z,-4.30
2019-01-30T20:08:57.829Z,-4.30
2019-01-30T20:11:27.897Z,-4.30
2019-01-30T20:13:58.035Z,-4.40
2019-01-30T20:16:28.189Z,-4.40
2019-01-30T20:18:58.291Z,-4.40
2019-01-30T20:21:28.268Z,-4.40
2019-01-30T20:23:58.416Z,-4.50
2019-01-30T20:26:28.412Z,-4.60
2019-01-30T20:28:58.539Z,-4.50
2019-01-30T20:31:28.551Z,-4.60
2019-01-30T20:34:09.747Z,-4.70
2019-01-30T20:36:34.111Z,-4.70
2019-01-30T20:39:05.723Z,-4.70
2019-01-30T20:41:35.822Z,-4.70
2019-01-30T20:44:06.122Z,-4.70
2019-01-30T20:46:36.128Z,-4.90
2019-01-30T20:49:06.264Z,-4.90
2019-01-30T20:51:36.363Z,-5.10
2019-01-30T20:54:06.644Z,-5.00
2019-01-30T20:56:36.800Z,-5.10
2019-01-30T20:59:06.956Z,-5.10
2019-01-30T21:01:37.191Z,-5.20
2019-01-30T21:04:07.348Z,-5.20
2019-01-30T21:06:37.482Z,-5.20
2019-01-30T21:09:09.743Z,-5.10
2019-01-30T21:11:39.843Z,-5.20
2019-01-30T21:14:09.900Z,-5.10
2019-01-30T21:16:39.883Z,-5.10
2019-01-30T21:19:09.923Z,-5.00
2019-01-30T21:21:39.916Z,-5.00
2019-01-30T21:24:10.013Z,-5.10
2019-01-30T21:26:40.235Z,-5.20
2019-01-30T21:29:10.288Z,-5.20
2019-01-30T21:31:42.408Z,-5.20
2019-01-30T21:34:12.568Z,-5.30
2019-01-30T21:36:43.579Z,-5.20
2019-01-30T21:39:16.604Z,-5.20
2019-01-30T21:41:46.632Z,-5.20
2019-01-30T21:44:16.742Z,-5.20
2019-01-30T21:46:47.963Z,-5.10
2019-01-30T21:49:22.169Z,-5.10
2019-01-30T21:51:54.688Z,-5.00
2019-01-30T21:54:27.431Z,-5.00
2019-01-30T21:56:58.709Z,-4.90
2019-01-30T21:59:28.483Z,-4.80
2019-01-30T22:02:08.066Z,-4.60
2019-01-30T22:04:32.136Z,-4.50
2019-01-30T22:07:11.159Z,-4.30
2019-01-30T22:09:46.774Z,-4.20
2019-01-30T22:12:17.090Z,-4.00
2019-01-30T22:14:48.397Z,-4.00
2019-01-30T22:17:22.134Z,-3.90
2019-01-30T22:19:53.479Z,-3.80
2019-01-30T22:22:29.379Z,-3.60
2019-01-30T22:25:06.687Z,-3.60
2019-01-30T22:27:41.115Z,-3.50
2019-01-30T22:30:26.177Z,-3.40
2019-01-30T22:32:59.987Z,-3.40
2019-01-30T22:35:40.075Z,-3.40
2019-01-30T22:38:12.891Z,-3.30
2019-01-30T22:40:49.147Z,-3.30
2019-01-30T22:43:21.596Z,-3.30
2019-01-30T22:45:51.670Z,-3.30
2019-01-30T22:48:32.008Z,-3.20
2019-01-30T22:51:02.047Z,-3.20
2019-01-30T22:53:31.911Z,-3.10
2019-01-30T22:56:01.810Z,-3.00
2019-01-30T22:58:31.731Z,-2.90
2019-01-30T23:01:38.908Z,-2.90
2019-01-30T23:04:34.863Z,-2.80
2019-01-30T23:07:17.880Z,-2.80
2019-01-30T23:10:23.319Z,-2.70
2019-01-30T23:13:16.063Z,-2.70
2019-01-30T23:16:10.242Z,-2.70
2019-01-30T23:19:05.251Z,-2.60
2019-01-30T23:21:45.919Z,-2.60
2019-01-30T23:25:00.712Z,-2.60
2019-01-30T23:27:42.779Z,-2.60
2019-01-30T23:30:50.588Z,-2.60
2019-01-30T23:33:56.131Z,-2.60
2019-01-30T23:36:53.996Z,-2.60
2019-01-30T23:39:48.895Z,-2.70
2019-01-30T23:43:07.378Z,-2.70
2019-01-30T23:45:46.663Z,-0.20
2019-01-30T23:48:37.679Z,-2.80
2019-01-30T23:52:00.235Z,-2.70
2019-01-30T23:54:55.848Z,-2.70
2019-01-30T23:58:08.979Z,-2.60
